sensor_id;sensor_type;location;lat;lon;timestamp;P1;durP1;ratioP1;P2;durP2;ratioP2
36423;SDS011;22458;45.328;9.514;2022-12-11T00:01:11;23.30;;;13.70;;
36423;SDS011;22458;45.328;9.514;2022-12-11T00:03:38;21.92;;;12.85;;
36423;SDS011;22458;45.328;9.514;2022-12-11T00:06:08;20.65;;;13.00;;
36423;SDS011;22458;45.328;9.514;2022-12-11T00:08:36;24.15;;;12.75;;
36423;SDS011;22458;45.328;9.514;2022-12-11T00:11:02;20.65;;;12.52;;
36423;SDS011;22458;45.328;9.514;2022-12-11T00:13:28;22.92;;;13.88;;
36423;SDS011;22458;45.328;9.514;2022-12-11T00:15:54;18.02;;;11.85;;
36423;SDS011;22458;45.328;9.514;2022-12-11T00:18:22;17.58;;;11.18;;
36423;SDS011;22458;45.328;9.514;2022-12-11T00:20:47;20.88;;;12.85;;
36423;SDS011;22458;45.328;9.514;2022-12-11T00:23:13;18.83;;;11.50;;
36423;SDS011;22458;45.328;9.514;2022-12-11T00:25:40;16.65;;;10.73;;
36423;SDS011;22458;45.328;9.514;2022-12-11T00:28:11;16.13;;;11.75;;
36423;SDS011;22458;45.328;9.514;2022-12-11T00:30:41;17.95;;;11.32;;
36423;SDS011;22458;45.328;9.514;2022-12-11T00:33:08;16.27;;;10.52;;
36423;SDS011;22458;45.328;9.514;2022-12-11T00:35:44;20.42;;;12.70;;
36423;SDS011;22458;45.328;9.514;2022-12-11T00:38:15;16.88;;;11.25;;
36423;SDS011;22458;45.328;9.514;2022-12-11T00:40:43;14.93;;;10.38;;
36423;SDS011;22458;45.328;9.514;2022-12-11T00:43:09;15.77;;;10.77;;
36423;SDS011;22458;45.328;9.514;2022-12-11T00:45:36;14.88;;;9.63;;
36423;SDS011;22458;45.328;9.514;2022-12-11T00:48:04;13.70;;;8.93;;
36423;SDS011;22458;45.328;9.514;2022-12-11T00:50:30;15.82;;;9.07;;
36423;SDS011;22458;45.328;9.514;2022-12-11T00:52:56;13.90;;;9.27;;
36423;SDS011;22458;45.328;9.514;2022-12-11T00:55:22;12.98;;;8.57;;
36423;SDS011;22458;45.328;9.514;2022-12-11T00:57:51;13.70;;;8.60;;
36423;SDS011;22458;45.328;9.514;2022-12-11T01:00:17;11.17;;;7.53;;
36423;SDS011;22458;45.328;9.514;2022-12-11T01:02:43;14.80;;;8.95;;
36423;SDS011;22458;45.328;9.514;2022-12-11T01:05:09;13.65;;;9.05;;
36423;SDS011;22458;45.328;9.514;2022-12-11T01:07:35;13.95;;;9.70;;
36423;SDS011;22458;45.328;9.514;2022-12-11T01:10:02;14.38;;;9.40;;
36423;SDS011;22458;45.328;9.514;2022-12-11T01:12:46;14.18;;;9.52;;
36423;SDS011;22458;45.328;9.514;2022-12-11T01:15:12;13.65;;;8.95;;
36423;SDS011;22458;45.328;9.514;2022-12-11T01:17:38;13.48;;;9.77;;
36423;SDS011;22458;45.328;9.514;2022-12-11T01:20:04;13.55;;;8.93;;
36423;SDS011;22458;45.328;9.514;2022-12-11T01:22:30;15.13;;;8.77;;
36423;SDS011;22458;45.328;9.514;2022-12-11T01:24:56;17.40;;;10.10;;
36423;SDS011;22458;45.328;9.514;2022-12-11T01:27:21;16.65;;;10.43;;
36423;SDS011;22458;45.328;9.514;2022-12-11T01:29:47;14.20;;;9.43;;
36423;SDS011;22458;45.328;9.514;2022-12-11T01:32:13;15.95;;;9.77;;
36423;SDS011;22458;45.328;9.514;2022-12-11T01:34:39;14.88;;;8.80;;
36423;SDS011;22458;45.328;9.514;2022-12-11T01:37:06;14.13;;;9.32;;
36423;SDS011;22458;45.328;9.514;2022-12-11T01:39:31;13.77;;;9.38;;
36423;SDS011;22458;45.328;9.514;2022-12-11T01:41:57;13.50;;;9.35;;
36423;SDS011;22458;45.328;9.514;2022-12-11T01:46:50;14.43;;;9.48;;
36423;SDS011;22458;45.328;9.514;2022-12-11T01:49:17;14.65;;;9.30;;
36423;SDS011;22458;45.328;9.514;2022-12-11T01:51:48;14.05;;;8.88;;
36423;SDS011;22458;45.328;9.514;2022-12-11T01:54:16;12.68;;;8.88;;
36423;SDS011;22458;45.328;9.514;2022-12-11T01:56:45;12.23;;;8.43;;
36423;SDS011;22458;45.328;9.514;2022-12-11T01:59:14;14.07;;;8.93;;
36423;SDS011;22458;45.328;9.514;2022-12-11T02:01:51;12.85;;;8.55;;
36423;SDS011;22458;45.328;9.514;2022-12-11T02:04:25;15.13;;;8.63;;
36423;SDS011;22458;45.328;9.514;2022-12-11T02:06:53;15.82;;;10.07;;
36423;SDS011;22458;45.328;9.514;2022-12-11T02:09:21;13.40;;;9.10;;
36423;SDS011;22458;45.328;9.514;2022-12-11T02:14:27;13.63;;;9.25;;
36423;SDS011;22458;45.328;9.514;2022-12-11T02:17:16;13.93;;;8.65;;
36423;SDS011;22458;45.328;9.514;2022-12-11T02:25:53;10.63;;;8.02;;
36423;SDS011;22458;45.328;9.514;2022-12-11T02:31:16;11.20;;;8.15;;
36423;SDS011;22458;45.328;9.514;2022-12-11T02:33:56;10.82;;;7.32;;
36423;SDS011;22458;45.328;9.514;2022-12-11T02:36:23;11.20;;;8.68;;
36423;SDS011;22458;45.328;9.514;2022-12-11T02:38:52;10.68;;;7.32;;
36423;SDS011;22458;45.328;9.514;2022-12-11T02:41:24;11.35;;;7.57;;
36423;SDS011;22458;45.328;9.514;2022-12-11T02:43:51;11.18;;;7.13;;
36423;SDS011;22458;45.328;9.514;2022-12-11T02:46:19;12.52;;;8.30;;
36423;SDS011;22458;45.328;9.514;2022-12-11T02:48:47;13.18;;;8.02;;
36423;SDS011;22458;45.328;9.514;2022-12-11T02:51:15;14.15;;;8.60;;
36423;SDS011;22458;45.328;9.514;2022-12-11T02:53:44;13.90;;;8.77;;
36423;SDS011;22458;45.328;9.514;2022-12-11T02:56:19;14.45;;;9.32;;
36423;SDS011;22458;45.328;9.514;2022-12-11T02:58:49;13.82;;;9.05;;
36423;SDS011;22458;45.328;9.514;2022-12-11T03:01:21;18.30;;;9.50;;
36423;SDS011;22458;45.328;9.514;2022-12-11T03:03:47;15.98;;;9.82;;
36423;SDS011;22458;45.328;9.514;2022-12-11T03:06:14;15.82;;;10.10;;
36423;SDS011;22458;45.328;9.514;2022-12-11T03:08:44;20.17;;;9.80;;
36423;SDS011;22458;45.328;9.514;2022-12-11T03:11:10;16.38;;;9.90;;
36423;SDS011;22458;45.328;9.514;2022-12-11T03:13:37;23.13;;;11.52;;
36423;SDS011;22458;45.328;9.514;2022-12-11T03:19:45;26.30;;;11.15;;
36423;SDS011;22458;45.328;9.514;2022-12-11T03:29:34;17.13;;;10.75;;
36423;SDS011;22458;45.328;9.514;2022-12-11T03:34:41;19.30;;;10.30;;
36423;SDS011;22458;45.328;9.514;2022-12-11T03:37:11;22.35;;;10.65;;
36423;SDS011;22458;45.328;9.514;2022-12-11T03:39:41;16.57;;;10.40;;
36423;SDS011;22458;45.328;9.514;2022-12-11T03:42:11;18.55;;;10.32;;
36423;SDS011;22458;45.328;9.514;2022-12-11T03:44:40;16.58;;;10.68;;
36423;SDS011;22458;45.328;9.514;2022-12-11T03:47:10;17.75;;;10.60;;
36423;SDS011;22458;45.328;9.514;2022-12-11T03:49:40;18.35;;;10.82;;
36423;SDS011;22458;45.328;9.514;2022-12-11T03:52:08;18.25;;;10.13;;
36423;SDS011;22458;45.328;9.514;2022-12-11T03:54:36;20.05;;;11.30;;
36423;SDS011;22458;45.328;9.514;2022-12-11T03:57:03;15.05;;;10.55;;
36423;SDS011;22458;45.328;9.514;2022-12-11T03:59:31;16.52;;;10.05;;
36423;SDS011;22458;45.328;9.514;2022-12-11T04:01:57;21.83;;;11.32;;
36423;SDS011;22458;45.328;9.514;2022-12-11T04:04:23;20.77;;;11.10;;
36423;SDS011;22458;45.328;9.514;2022-12-11T04:06:49;17.45;;;10.80;;
36423;SDS011;22458;45.328;9.514;2022-12-11T04:09:15;19.63;;;10.38;;
36423;SDS011;22458;45.328;9.514;2022-12-11T04:11:41;20.55;;;10.77;;
36423;SDS011;22458;45.328;9.514;2022-12-11T04:14:08;16.77;;;10.65;;
36423;SDS011;22458;45.328;9.514;2022-12-11T04:16:54;16.30;;;11.10;;
36423;SDS011;22458;45.328;9.514;2022-12-11T04:19:21;17.75;;;10.13;;
36423;SDS011;22458;45.328;9.514;2022-12-11T04:22:06;18.63;;;11.50;;
36423;SDS011;22458;45.328;9.514;2022-12-11T04:24:39;21.80;;;10.15;;
36423;SDS011;22458;45.328;9.514;2022-12-11T04:27:04;16.42;;;10.68;;
36423;SDS011;22458;45.328;9.514;2022-12-11T04:29:30;17.52;;;10.43;;
36423;SDS011;22458;45.328;9.514;2022-12-11T04:31:56;16.65;;;9.65;;
36423;SDS011;22458;45.328;9.514;2022-12-11T04:34:22;16.38;;;10.02;;
36423;SDS011;22458;45.328;9.514;2022-12-11T04:36:48;14.43;;;10.20;;
36423;SDS011;22458;45.328;9.514;2022-12-11T04:39:14;15.05;;;9.88;;
36423;SDS011;22458;45.328;9.514;2022-12-11T04:41:39;16.80;;;10.82;;
36423;SDS011;22458;45.328;9.514;2022-12-11T04:44:06;19.60;;;11.32;;
36423;SDS011;22458;45.328;9.514;2022-12-11T04:46:31;16.20;;;9.32;;
36423;SDS011;22458;45.328;9.514;2022-12-11T04:48:58;15.25;;;10.20;;
36423;SDS011;22458;45.328;9.514;2022-12-11T04:51:25;17.48;;;10.15;;
36423;SDS011;22458;45.328;9.514;2022-12-11T04:53:52;14.93;;;10.07;;
36423;SDS011;22458;45.328;9.514;2022-12-11T04:56:19;19.20;;;12.60;;
36423;SDS011;22458;45.328;9.514;2022-12-11T04:58:45;18.45;;;10.45;;
36423;SDS011;22458;45.328;9.514;2022-12-11T05:01:20;18.13;;;9.60;;
36423;SDS011;22458;45.328;9.514;2022-12-11T05:03:46;17.75;;;10.77;;
36423;SDS011;22458;45.328;9.514;2022-12-11T05:06:12;18.42;;;11.18;;
36423;SDS011;22458;45.328;9.514;2022-12-11T05:08:39;14.80;;;9.05;;
36423;SDS011;22458;45.328;9.514;2022-12-11T05:11:07;15.40;;;9.73;;
36423;SDS011;22458;45.328;9.514;2022-12-11T05:13:35;15.63;;;9.55;;
36423;SDS011;22458;45.328;9.514;2022-12-11T05:16:04;15.50;;;9.32;;
36423;SDS011;22458;45.328;9.514;2022-12-11T05:18:31;14.07;;;9.73;;
36423;SDS011;22458;45.328;9.514;2022-12-11T05:20:58;14.57;;;8.57;;
36423;SDS011;22458;45.328;9.514;2022-12-11T05:23:25;15.10;;;9.73;;
36423;SDS011;22458;45.328;9.514;2022-12-11T05:25:52;14.68;;;8.95;;
36423;SDS011;22458;45.328;9.514;2022-12-11T05:28:19;13.85;;;9.18;;
36423;SDS011;22458;45.328;9.514;2022-12-11T05:30:45;16.83;;;8.98;;
36423;SDS011;22458;45.328;9.514;2022-12-11T05:33:11;15.25;;;9.52;;
36423;SDS011;22458;45.328;9.514;2022-12-11T05:35:37;13.55;;;8.60;;
36423;SDS011;22458;45.328;9.514;2022-12-11T05:38:03;14.18;;;8.50;;
36423;SDS011;22458;45.328;9.514;2022-12-11T05:40:29;15.75;;;8.93;;
36423;SDS011;22458;45.328;9.514;2022-12-11T05:42:54;14.60;;;9.57;;
36423;SDS011;22458;45.328;9.514;2022-12-11T05:45:20;11.80;;;8.73;;
36423;SDS011;22458;45.328;9.514;2022-12-11T05:47:46;13.52;;;9.05;;
36423;SDS011;22458;45.328;9.514;2022-12-11T05:50:11;12.18;;;8.70;;
36423;SDS011;22458;45.328;9.514;2022-12-11T05:52:37;15.52;;;9.07;;
36423;SDS011;22458;45.328;9.514;2022-12-11T05:55:03;14.23;;;9.23;;
36423;SDS011;22458;45.328;9.514;2022-12-11T05:57:29;15.02;;;9.48;;
36423;SDS011;22458;45.328;9.514;2022-12-11T05:59:55;15.13;;;9.90;;
36423;SDS011;22458;45.328;9.514;2022-12-11T06:02:20;13.93;;;8.50;;
36423;SDS011;22458;45.328;9.514;2022-12-11T06:04:46;12.65;;;8.40;;
36423;SDS011;22458;45.328;9.514;2022-12-11T06:07:12;12.43;;;8.45;;
36423;SDS011;22458;45.328;9.514;2022-12-11T06:09:38;15.10;;;9.45;;
36423;SDS011;22458;45.328;9.514;2022-12-11T06:12:04;12.02;;;8.23;;
36423;SDS011;22458;45.328;9.514;2022-12-11T06:14:29;11.05;;;7.75;;
36423;SDS011;22458;45.328;9.514;2022-12-11T06:16:55;10.90;;;7.68;;
36423;SDS011;22458;45.328;9.514;2022-12-11T06:19:21;15.88;;;8.13;;
36423;SDS011;22458;45.328;9.514;2022-12-11T06:21:47;12.18;;;7.80;;
36423;SDS011;22458;45.328;9.514;2022-12-11T06:24:13;12.73;;;8.63;;
36423;SDS011;22458;45.328;9.514;2022-12-11T06:26:39;11.25;;;8.00;;
36423;SDS011;22458;45.328;9.514;2022-12-11T06:29:04;15.68;;;9.63;;
36423;SDS011;22458;45.328;9.514;2022-12-11T06:31:30;10.63;;;7.35;;
36423;SDS011;22458;45.328;9.514;2022-12-11T06:33:56;12.27;;;8.45;;
36423;SDS011;22458;45.328;9.514;2022-12-11T06:36:22;13.32;;;8.30;;
36423;SDS011;22458;45.328;9.514;2022-12-11T06:38:48;13.45;;;8.80;;
36423;SDS011;22458;45.328;9.514;2022-12-11T06:41:15;11.07;;;7.82;;
36423;SDS011;22458;45.328;9.514;2022-12-11T06:43:42;11.68;;;8.05;;
36423;SDS011;22458;45.328;9.514;2022-12-11T06:46:09;13.25;;;9.10;;
36423;SDS011;22458;45.328;9.514;2022-12-11T06:48:40;12.82;;;9.20;;
36423;SDS011;22458;45.328;9.514;2022-12-11T06:51:07;13.93;;;9.50;;
36423;SDS011;22458;45.328;9.514;2022-12-11T06:53:34;14.00;;;9.43;;
36423;SDS011;22458;45.328;9.514;2022-12-11T06:56:01;12.27;;;8.65;;
36423;SDS011;22458;45.328;9.514;2022-12-11T06:58:27;11.38;;;8.10;;
36423;SDS011;22458;45.328;9.514;2022-12-11T07:00:53;11.90;;;7.80;;
36423;SDS011;22458;45.328;9.514;2022-12-11T07:03:19;11.35;;;8.52;;
36423;SDS011;22458;45.328;9.514;2022-12-11T07:05:45;11.23;;;7.95;;
36423;SDS011;22458;45.328;9.514;2022-12-11T07:08:10;11.68;;;7.82;;
36423;SDS011;22458;45.328;9.514;2022-12-11T07:10:36;12.00;;;8.88;;
36423;SDS011;22458;45.328;9.514;2022-12-11T07:13:02;11.80;;;8.00;;
36423;SDS011;22458;45.328;9.514;2022-12-11T07:15:27;10.02;;;7.30;;
36423;SDS011;22458;45.328;9.514;2022-12-11T07:17:53;11.32;;;7.65;;
36423;SDS011;22458;45.328;9.514;2022-12-11T07:20:19;11.10;;;7.95;;
36423;SDS011;22458;45.328;9.514;2022-12-11T07:22:45;11.68;;;8.48;;
36423;SDS011;22458;45.328;9.514;2022-12-11T07:25:10;9.52;;;7.13;;
36423;SDS011;22458;45.328;9.514;2022-12-11T07:27:36;13.02;;;8.55;;
36423;SDS011;22458;45.328;9.514;2022-12-11T07:30:02;11.82;;;7.30;;
36423;SDS011;22458;45.328;9.514;2022-12-11T07:32:28;9.85;;;7.60;;
36423;SDS011;22458;45.328;9.514;2022-12-11T07:34:54;9.50;;;6.78;;
36423;SDS011;22458;45.328;9.514;2022-12-11T07:37:20;10.88;;;7.53;;
36423;SDS011;22458;45.328;9.514;2022-12-11T07:39:45;10.23;;;7.30;;
36423;SDS011;22458;45.328;9.514;2022-12-11T07:42:13;11.07;;;8.10;;
36423;SDS011;22458;45.328;9.514;2022-12-11T07:44:38;11.60;;;8.10;;
36423;SDS011;22458;45.328;9.514;2022-12-11T07:47:04;9.65;;;7.30;;
36423;SDS011;22458;45.328;9.514;2022-12-11T07:49:30;9.43;;;7.63;;
36423;SDS011;22458;45.328;9.514;2022-12-11T07:51:56;10.75;;;6.63;;
36423;SDS011;22458;45.328;9.514;2022-12-11T07:54:21;10.35;;;7.40;;
36423;SDS011;22458;45.328;9.514;2022-12-11T07:56:47;11.15;;;7.75;;
36423;SDS011;22458;45.328;9.514;2022-12-11T07:59:13;13.77;;;8.63;;
36423;SDS011;22458;45.328;9.514;2022-12-11T08:01:40;10.25;;;7.63;;
36423;SDS011;22458;45.328;9.514;2022-12-11T08:04:07;11.57;;;8.18;;
36423;SDS011;22458;45.328;9.514;2022-12-11T08:06:36;8.63;;;7.32;;
36423;SDS011;22458;45.328;9.514;2022-12-11T08:09:04;12.50;;;8.68;;
36423;SDS011;22458;45.328;9.514;2022-12-11T08:11:32;10.93;;;7.43;;
36423;SDS011;22458;45.328;9.514;2022-12-11T08:13:58;9.68;;;7.05;;
36423;SDS011;22458;45.328;9.514;2022-12-11T08:16:24;9.27;;;7.80;;
36423;SDS011;22458;45.328;9.514;2022-12-11T08:18:50;8.75;;;7.00;;
36423;SDS011;22458;45.328;9.514;2022-12-11T08:23:43;11.82;;;7.47;;
36423;SDS011;22458;45.328;9.514;2022-12-11T08:26:11;10.43;;;8.05;;
36423;SDS011;22458;45.328;9.514;2022-12-11T08:28:39;10.73;;;7.50;;
36423;SDS011;22458;45.328;9.514;2022-12-11T08:31:08;9.43;;;6.88;;
36423;SDS011;22458;45.328;9.514;2022-12-11T08:33:35;10.00;;;7.47;;
36423;SDS011;22458;45.328;9.514;2022-12-11T08:36:03;8.13;;;7.10;;
36423;SDS011;22458;45.328;9.514;2022-12-11T08:38:30;8.43;;;6.53;;
36423;SDS011;22458;45.328;9.514;2022-12-11T08:40:55;10.15;;;8.00;;
36423;SDS011;22458;45.328;9.514;2022-12-11T08:43:21;9.02;;;7.57;;
36423;SDS011;22458;45.328;9.514;2022-12-11T08:45:47;12.32;;;7.90;;
36423;SDS011;22458;45.328;9.514;2022-12-11T08:48:13;9.52;;;6.75;;
36423;SDS011;22458;45.328;9.514;2022-12-11T08:50:39;11.25;;;8.05;;
36423;SDS011;22458;45.328;9.514;2022-12-11T08:53:05;10.38;;;6.75;;
36423;SDS011;22458;45.328;9.514;2022-12-11T08:55:31;10.07;;;7.35;;
36423;SDS011;22458;45.328;9.514;2022-12-11T08:57:57;9.38;;;7.05;;
36423;SDS011;22458;45.328;9.514;2022-12-11T09:00:23;8.38;;;6.40;;
36423;SDS011;22458;45.328;9.514;2022-12-11T09:02:48;8.85;;;7.53;;
36423;SDS011;22458;45.328;9.514;2022-12-11T09:05:14;9.07;;;7.18;;
36423;SDS011;22458;45.328;9.514;2022-12-11T09:07:40;8.90;;;7.18;;
36423;SDS011;22458;45.328;9.514;2022-12-11T09:10:06;9.93;;;7.63;;
36423;SDS011;22458;45.328;9.514;2022-12-11T09:12:32;9.73;;;6.65;;
36423;SDS011;22458;45.328;9.514;2022-12-11T09:14:58;10.93;;;7.85;;
36423;SDS011;22458;45.328;9.514;2022-12-11T09:17:25;8.50;;;7.03;;
36423;SDS011;22458;45.328;9.514;2022-12-11T09:19:51;9.90;;;7.43;;
36423;SDS011;22458;45.328;9.514;2022-12-11T09:22:16;10.90;;;7.55;;
36423;SDS011;22458;45.328;9.514;2022-12-11T09:24:42;10.75;;;7.97;;
36423;SDS011;22458;45.328;9.514;2022-12-11T09:27:08;9.88;;;7.35;;
36423;SDS011;22458;45.328;9.514;2022-12-11T09:29:34;9.98;;;8.10;;
36423;SDS011;22458;45.328;9.514;2022-12-11T09:32:00;10.10;;;7.20;;
36423;SDS011;22458;45.328;9.514;2022-12-11T09:34:25;8.25;;;7.03;;
36423;SDS011;22458;45.328;9.514;2022-12-11T09:36:51;9.77;;;7.90;;
36423;SDS011;22458;45.328;9.514;2022-12-11T09:39:17;9.55;;;6.85;;
36423;SDS011;22458;45.328;9.514;2022-12-11T09:44:19;8.45;;;6.30;;
36423;SDS011;22458;45.328;9.514;2022-12-11T09:46:45;6.43;;;5.28;;
36423;SDS011;22458;45.328;9.514;2022-12-11T09:51:58;8.20;;;6.45;;
36423;SDS011;22458;45.328;9.514;2022-12-11T09:54:32;7.28;;;5.40;;
36423;SDS011;22458;45.328;9.514;2022-12-11T09:57:11;8.27;;;5.70;;
36423;SDS011;22458;45.328;9.514;2022-12-11T10:00:06;6.55;;;5.22;;
36423;SDS011;22458;45.328;9.514;2022-12-11T10:03:29;11.15;;;4.78;;
36423;SDS011;22458;45.328;9.514;2022-12-11T10:14:12;5.85;;;5.25;;
36423;SDS011;22458;45.328;9.514;2022-12-11T10:16:44;6.28;;;4.88;;
36423;SDS011;22458;45.328;9.514;2022-12-11T10:19:17;7.63;;;4.93;;
36423;SDS011;22458;45.328;9.514;2022-12-11T10:21:53;5.88;;;4.68;;
36423;SDS011;22458;45.328;9.514;2022-12-11T10:27:19;6.70;;;5.00;;
36423;SDS011;22458;45.328;9.514;2022-12-11T10:29:47;6.07;;;4.80;;
36423;SDS011;22458;45.328;9.514;2022-12-11T10:32:37;6.18;;;5.18;;
36423;SDS011;22458;45.328;9.514;2022-12-11T10:35:24;7.18;;;5.63;;
36423;SDS011;22458;45.328;9.514;2022-12-11T10:40:58;6.40;;;5.15;;
36423;SDS011;22458;45.328;9.514;2022-12-11T10:43:36;7.30;;;5.80;;
36423;SDS011;22458;45.328;9.514;2022-12-11T10:46:14;8.15;;;5.60;;
36423;SDS011;22458;45.328;9.514;2022-12-11T10:54:15;8.05;;;5.45;;
36423;SDS011;22458;45.328;9.514;2022-12-11T10:56:53;6.20;;;4.65;;
36423;SDS011;22458;45.328;9.514;2022-12-11T10:59:23;6.63;;;4.72;;
36423;SDS011;22458;45.328;9.514;2022-12-11T11:04:56;6.38;;;5.18;;
36423;SDS011;22458;45.328;9.514;2022-12-11T11:07:28;6.03;;;4.70;;
36423;SDS011;22458;45.328;9.514;2022-12-11T11:10:09;6.57;;;4.90;;
36423;SDS011;22458;45.328;9.514;2022-12-11T11:15:14;6.57;;;4.78;;
36423;SDS011;22458;45.328;9.514;2022-12-11T11:17:45;5.35;;;4.30;;
36423;SDS011;22458;45.328;9.514;2022-12-11T11:20:14;7.25;;;4.93;;
36423;SDS011;22458;45.328;9.514;2022-12-11T11:22:47;7.00;;;5.00;;
36423;SDS011;22458;45.328;9.514;2022-12-11T11:25:19;5.03;;;3.90;;
36423;SDS011;22458;45.328;9.514;2022-12-11T11:27:57;6.22;;;4.63;;
36423;SDS011;22458;45.328;9.514;2022-12-11T11:30:28;3.80;;;3.40;;
36423;SDS011;22458;45.328;9.514;2022-12-11T11:33:03;4.32;;;3.50;;
36423;SDS011;22458;45.328;9.514;2022-12-11T11:35:30;5.28;;;3.55;;
36423;SDS011;22458;45.328;9.514;2022-12-11T11:37:59;3.85;;;3.20;;
36423;SDS011;22458;45.328;9.514;2022-12-11T11:40:50;4.03;;;3.00;;
36423;SDS011;22458;45.328;9.514;2022-12-11T11:43:35;3.10;;;2.67;;
36423;SDS011;22458;45.328;9.514;2022-12-11T11:46:10;2.63;;;2.30;;
36423;SDS011;22458;45.328;9.514;2022-12-11T11:51:29;5.13;;;2.20;;
36423;SDS011;22458;45.328;9.514;2022-12-11T11:54:01;2.67;;;2.28;;
36423;SDS011;22458;45.328;9.514;2022-12-11T11:56:34;3.40;;;2.33;;
36423;SDS011;22458;45.328;9.514;2022-12-11T12:01:50;4.82;;;2.97;;
36423;SDS011;22458;45.328;9.514;2022-12-11T12:04:19;5.13;;;3.17;;
36423;SDS011;22458;45.328;9.514;2022-12-11T12:09:54;6.32;;;3.85;;
36423;SDS011;22458;45.328;9.514;2022-12-11T12:12:44;8.27;;;4.30;;
36423;SDS011;22458;45.328;9.514;2022-12-11T12:20:16;4.97;;;4.07;;
36423;SDS011;22458;45.328;9.514;2022-12-11T12:48:10;2.85;;;2.05;;
36423;SDS011;22458;45.328;9.514;2022-12-11T12:50:37;2.08;;;1.75;;
36423;SDS011;22458;45.328;9.514;2022-12-11T12:53:08;3.67;;;2.05;;
36423;SDS011;22458;45.328;9.514;2022-12-11T12:55:54;3.75;;;2.92;;
36423;SDS011;22458;45.328;9.514;2022-12-11T13:01:05;3.45;;;2.65;;
36423;SDS011;22458;45.328;9.514;2022-12-11T13:09:17;2.70;;;1.92;;
36423;SDS011;22458;45.328;9.514;2022-12-11T13:11:54;4.10;;;2.25;;
36423;SDS011;22458;45.328;9.514;2022-12-11T13:14:25;3.20;;;2.00;;
36423;SDS011;22458;45.328;9.514;2022-12-11T13:19:45;3.08;;;2.03;;
36423;SDS011;22458;45.328;9.514;2022-12-11T13:27:49;2.08;;;1.88;;
36423;SDS011;22458;45.328;9.514;2022-12-11T13:32:40;1.92;;;1.73;;
36423;SDS011;22458;45.328;9.514;2022-12-11T13:35:11;3.10;;;2.10;;
36423;SDS011;22458;45.328;9.514;2022-12-11T13:37:40;3.33;;;2.05;;
36423;SDS011;22458;45.328;9.514;2022-12-11T13:40:16;1.90;;;1.67;;
36423;SDS011;22458;45.328;9.514;2022-12-11T13:42:49;2.65;;;1.90;;
36423;SDS011;22458;45.328;9.514;2022-12-11T13:45:21;3.03;;;2.40;;
36423;SDS011;22458;45.328;9.514;2022-12-11T13:47:51;3.38;;;2.50;;
36423;SDS011;22458;45.328;9.514;2022-12-11T13:52:51;2.67;;;2.17;;
36423;SDS011;22458;45.328;9.514;2022-12-11T13:55:22;3.13;;;2.35;;
36423;SDS011;22458;45.328;9.514;2022-12-11T13:57:53;4.03;;;2.50;;
36423;SDS011;22458;45.328;9.514;2022-12-11T14:00:21;3.40;;;2.92;;
36423;SDS011;22458;45.328;9.514;2022-12-11T14:02:52;3.15;;;2.58;;
36423;SDS011;22458;45.328;9.514;2022-12-11T14:10:17;3.40;;;2.80;;
36423;SDS011;22458;45.328;9.514;2022-12-11T14:12:57;3.78;;;2.80;;
36423;SDS011;22458;45.328;9.514;2022-12-11T14:15:30;4.05;;;3.20;;
36423;SDS011;22458;45.328;9.514;2022-12-11T14:17:57;2.65;;;2.40;;
36423;SDS011;22458;45.328;9.514;2022-12-11T14:20:26;3.55;;;2.72;;
36423;SDS011;22458;45.328;9.514;2022-12-11T14:23:03;3.05;;;2.25;;
36423;SDS011;22458;45.328;9.514;2022-12-11T14:25:30;3.72;;;2.45;;
36423;SDS011;22458;45.328;9.514;2022-12-11T14:27:56;2.50;;;2.30;;
36423;SDS011;22458;45.328;9.514;2022-12-11T14:30:23;2.70;;;2.50;;
36423;SDS011;22458;45.328;9.514;2022-12-11T14:32:57;2.70;;;2.45;;
36423;SDS011;22458;45.328;9.514;2022-12-11T14:35:27;3.50;;;3.20;;
36423;SDS011;22458;45.328;9.514;2022-12-11T14:40:34;4.82;;;3.95;;
36423;SDS011;22458;45.328;9.514;2022-12-11T14:43:06;4.00;;;3.60;;
36423;SDS011;22458;45.328;9.514;2022-12-11T14:45:37;4.63;;;4.13;;
36423;SDS011;22458;45.328;9.514;2022-12-11T14:48:09;4.30;;;3.85;;
36423;SDS011;22458;45.328;9.514;2022-12-11T14:50:48;4.30;;;3.15;;
36423;SDS011;22458;45.328;9.514;2022-12-11T14:55:46;2.73;;;2.47;;
36423;SDS011;22458;45.328;9.514;2022-12-11T14:58:17;3.40;;;2.72;;
36423;SDS011;22458;45.328;9.514;2022-12-11T15:01:00;2.60;;;2.40;;
36423;SDS011;22458;45.328;9.514;2022-12-11T15:03:38;3.20;;;2.60;;
36423;SDS011;22458;45.328;9.514;2022-12-11T15:08:55;2.88;;;2.60;;
36423;SDS011;22458;45.328;9.514;2022-12-11T15:11:21;2.75;;;1.92;;
36423;SDS011;22458;45.328;9.514;2022-12-11T15:13:56;2.60;;;2.10;;
36423;SDS011;22458;45.328;9.514;2022-12-11T15:16:25;2.55;;;2.33;;
36423;SDS011;22458;45.328;9.514;2022-12-11T15:18:55;3.30;;;2.33;;
36423;SDS011;22458;45.328;9.514;2022-12-11T15:21:29;3.13;;;2.20;;
36423;SDS011;22458;45.328;9.514;2022-12-11T15:24:03;2.75;;;2.20;;
36423;SDS011;22458;45.328;9.514;2022-12-11T15:26:32;3.45;;;2.40;;
36423;SDS011;22458;45.328;9.514;2022-12-11T15:29:00;4.13;;;2.58;;
36423;SDS011;22458;45.328;9.514;2022-12-11T15:31:46;4.38;;;2.45;;
36423;SDS011;22458;45.328;9.514;2022-12-11T15:34:31;2.38;;;2.17;;
36423;SDS011;22458;45.328;9.514;2022-12-11T15:37:16;3.90;;;2.78;;
36423;SDS011;22458;45.328;9.514;2022-12-11T15:39:45;5.32;;;2.72;;
36423;SDS011;22458;45.328;9.514;2022-12-11T15:42:12;2.75;;;2.55;;
36423;SDS011;22458;45.328;9.514;2022-12-11T15:44:40;2.42;;;2.22;;
36423;SDS011;22458;45.328;9.514;2022-12-11T15:47:10;3.00;;;2.40;;
36423;SDS011;22458;45.328;9.514;2022-12-11T15:49:37;2.35;;;2.00;;
36423;SDS011;22458;45.328;9.514;2022-12-11T15:52:03;2.83;;;2.60;;
36423;SDS011;22458;45.328;9.514;2022-12-11T15:54:29;2.45;;;2.25;;
36423;SDS011;22458;45.328;9.514;2022-12-11T15:56:54;2.75;;;2.45;;
36423;SDS011;22458;45.328;9.514;2022-12-11T15:59:20;2.38;;;2.17;;
36423;SDS011;22458;45.328;9.514;2022-12-11T16:01:46;2.70;;;2.50;;
36423;SDS011;22458;45.328;9.514;2022-12-11T16:04:12;3.22;;;2.85;;
36423;SDS011;22458;45.328;9.514;2022-12-11T16:06:38;2.85;;;2.45;;
36423;SDS011;22458;45.328;9.514;2022-12-11T16:09:09;3.30;;;2.80;;
36423;SDS011;22458;45.328;9.514;2022-12-11T16:11:35;3.35;;;2.75;;
36423;SDS011;22458;45.328;9.514;2022-12-11T16:14:00;3.15;;;2.70;;
36423;SDS011;22458;45.328;9.514;2022-12-11T16:16:29;5.47;;;2.67;;
36423;SDS011;22458;45.328;9.514;2022-12-11T16:18:55;3.10;;;2.80;;
36423;SDS011;22458;45.328;9.514;2022-12-11T16:21:21;4.18;;;2.65;;
36423;SDS011;22458;45.328;9.514;2022-12-11T16:23:47;3.00;;;2.70;;
36423;SDS011;22458;45.328;9.514;2022-12-11T16:26:12;4.85;;;2.78;;
36423;SDS011;22458;45.328;9.514;2022-12-11T16:28:40;3.88;;;2.95;;
36423;SDS011;22458;45.328;9.514;2022-12-11T16:31:10;3.08;;;2.58;;
36423;SDS011;22458;45.328;9.514;2022-12-11T16:33:37;2.63;;;2.22;;
36423;SDS011;22458;45.328;9.514;2022-12-11T16:36:13;4.45;;;3.33;;
36423;SDS011;22458;45.328;9.514;2022-12-11T16:38:40;8.18;;;3.03;;
36423;SDS011;22458;45.328;9.514;2022-12-11T16:41:09;4.45;;;2.50;;
36423;SDS011;22458;45.328;9.514;2022-12-11T16:43:34;2.90;;;2.53;;
36423;SDS011;22458;45.328;9.514;2022-12-11T16:46:00;3.17;;;2.40;;
36423;SDS011;22458;45.328;9.514;2022-12-11T16:48:26;2.70;;;2.42;;
36423;SDS011;22458;45.328;9.514;2022-12-11T16:50:52;3.42;;;2.50;;
36423;SDS011;22458;45.328;9.514;2022-12-11T16:53:18;2.88;;;2.25;;
36423;SDS011;22458;45.328;9.514;2022-12-11T16:55:44;2.40;;;2.20;;
36423;SDS011;22458;45.328;9.514;2022-12-11T16:58:10;10.82;;;2.15;;
36423;SDS011;22458;45.328;9.514;2022-12-11T17:00:42;2.30;;;2.05;;
36423;SDS011;22458;45.328;9.514;2022-12-11T17:03:07;2.65;;;2.30;;